createdAt,value
2019-05-19T00:01:01.187Z,97667.82
2019-05-19T00:03:28.410Z,97671.80
2019-05-19T00:05:55.395Z,97666.84
2019-05-19T00:08:22.247Z,97661.54
2019-05-19T00:10:49.485Z,97661.34
2019-05-19T00:13:16.301Z,97662.11
2019-05-19T00:15:43.736Z,97656.55
2019-05-19T00:18:10.715Z,97647.80
2019-05-19T00:20:37.680Z,97653.47
2019-05-19T00:23:04.569Z,97652.11
2019-05-19T00:25:33.088Z,97662.80
2019-05-19T00:27:59.921Z,97656.00
2019-05-19T00:30:27.226Z,97655.08
2019-05-19T00:32:53.990Z,97658.48
2019-05-19T00:35:21.176Z,97657.45
2019-05-19T00:37:48.090Z,97658.94
2019-05-19T00:40:17.886Z,97654.41
2019-05-19T00:42:44.840Z,97651.30
2019-05-19T00:45:12.624Z,97648.55
2019-05-19T00:47:39.918Z,97641.88
2019-05-19T00:50:16.567Z,97637.22
2019-05-19T00:52:43.545Z,97634.49
2019-05-19T00:55:10.712Z,97625.30
2019-05-19T00:57:38.191Z,97628.55
2019-05-19T01:00:07.601Z,97625.30
2019-05-19T01:02:35.449Z,97630.45
2019-05-19T01:05:07.120Z,97627.64
2019-05-19T01:07:34.910Z,97619.04
2019-05-19T01:10:07.180Z,97614.27
2019-05-19T01:12:34.210Z,97619.73
2019-05-19T01:15:01.492Z,97620.34
2019-05-19T01:17:28.475Z,97619.78
2019-05-19T01:19:56.376Z,97627.51
2019-05-19T01:22:23.451Z,97623.53
2019-05-19T01:24:50.735Z,97623.55
2019-05-19T01:27:17.531Z,97623.19
2019-05-19T01:29:44.681Z,97623.64
2019-05-19T01:32:11.472Z,97622.48
2019-05-19T01:34:38.368Z,97623.59
2019-05-19T01:37:05.181Z,97623.48
2019-05-19T01:39:32.225Z,97626.20
2019-05-19T01:41:59.736Z,97629.41
2019-05-19T01:44:26.880Z,97625.20
2019-05-19T01:46:53.792Z,97626.70
2019-05-19T01:49:20.741Z,97628.88
2019-05-19T01:51:47.562Z,97634.78
2019-05-19T01:54:16.723Z,97638.63
2019-05-19T01:56:44.307Z,97640.65
2019-05-19T01:59:11.196Z,97637.92
2019-05-19T02:01:38.458Z,97636.79
2019-05-19T02:04:05.410Z,97636.13
2019-05-19T02:06:32.264Z,97631.73
2019-05-19T02:08:59.141Z,97632.97
2019-05-19T02:11:26.616Z,97632.75
2019-05-19T02:13:53.470Z,97622.31
2019-05-19T02:16:20.313Z,97616.86
2019-05-19T02:18:47.509Z,97607.31
2019-05-19T02:21:14.685Z,97595.27
2019-05-19T02:23:42.105Z,97603.78
2019-05-19T02:26:09.084Z,97613.39
2019-05-19T02:28:35.991Z,97620.92
2019-05-19T02:31:03.011Z,97623.00
2019-05-19T02:33:30.117Z,97623.00
2019-05-19T02:35:56.993Z,97620.72
2019-05-19T02:38:23.726Z,97615.97
2019-05-19T02:40:55.005Z,97613.13
2019-05-19T02:43:23.701Z,97609.82
2019-05-19T02:45:56.547Z,97604.27
2019-05-19T02:48:28.751Z,97619.33
2019-05-19T02:51:00.257Z,97620.38
2019-05-19T02:53:32.845Z,97612.90
2019-05-19T02:56:02.273Z,97605.78
2019-05-19T02:58:31.029Z,97601.48
2019-05-19T03:00:58.034Z,97603.52
2019-05-19T03:03:24.940Z,97611.89
2019-05-19T03:05:52.195Z,97618.45
2019-05-19T03:08:19.121Z,97615.52
2019-05-19T03:10:46.699Z,97621.86
2019-05-19T03:13:13.670Z,97626.73
2019-05-19T03:15:40.585Z,97623.89
2019-05-19T03:18:08.890Z,97626.16
2019-05-19T03:20:36.302Z,97627.97
2019-05-19T03:23:03.235Z,97635.01
2019-05-19T03:25:30.200Z,97633.52
2019-05-19T03:27:57.244Z,97631.84
2019-05-19T03:30:42.454Z,97637.96
2019-05-19T03:33:11.410Z,97641.59
2019-05-19T03:35:38.281Z,97636.38
2019-05-19T03:38:05.301Z,97635.47
2019-05-19T03:40:32.322Z,97641.13
2019-05-19T03:42:59.424Z,97638.06
2019-05-19T03:45:26.609Z,97636.15
2019-05-19T03:47:53.621Z,97627.86
2019-05-19T03:50:20.596Z,97633.86
2019-05-19T03:52:47.632Z,97633.39
2019-05-19T03:55:14.641Z,97638.83
2019-05-19T03:57:41.732Z,97638.60
2019-05-19T04:00:09.797Z,97644.05
2019-05-19T04:02:36.697Z,97644.06
2019-05-19T04:05:06.880Z,97642.16
2019-05-19T04:07:33.943Z,97638.41
2019-05-19T04:10:01.292Z,97643.39
2019-05-19T04:12:28.370Z,97636.72
2019-05-19T04:14:55.684Z,97633.63
2019-05-19T04:17:22.728Z,97640.32
2019-05-19T04:19:50.128Z,97637.24
2019-05-19T04:22:17.309Z,97644.52
2019-05-19T04:24:44.957Z,97647.02
2019-05-19T04:27:11.884Z,97649.97
2019-05-19T04:29:39.605Z,97651.78
2019-05-19T04:32:06.771Z,97655.86
2019-05-19T04:34:34.129Z,97649.52
2019-05-19T04:37:01.532Z,97650.09
2019-05-19T04:39:28.672Z,97658.58
2019-05-19T04:41:55.467Z,97654.73
2019-05-19T04:44:23.743Z,97659.61
2019-05-19T04:46:50.851Z,97653.36
2019-05-19T04:49:17.702Z,97652.22
2019-05-19T04:51:45.076Z,97656.06
2019-05-19T04:54:12.607Z,97653.69
2019-05-19T04:56:39.422Z,97652.19
2019-05-19T04:59:06.246Z,97660.56
2019-05-19T05:01:33.602Z,97664.44
2019-05-19T05:04:00.490Z,97661.28
2019-05-19T05:06:27.359Z,97657.20
2019-05-19T05:08:54.135Z,97659.02
2019-05-19T05:11:21.217Z,97660.72
2019-05-19T05:13:48.424Z,97663.53
2019-05-19T05:16:15.244Z,97658.77
2019-05-19T05:18:42.171Z,97662.30
2019-05-19T05:21:09.340Z,97659.81
2019-05-19T05:23:36.179Z,97657.41
2019-05-19T05:26:03.622Z,97661.94
2019-05-19T05:28:31.287Z,97659.58
2019-05-19T05:30:58.514Z,97657.64
2019-05-19T05:33:25.753Z,97657.19
2019-05-19T05:35:52.505Z,97658.54
2019-05-19T05:38:19.294Z,97656.49
2019-05-19T05:40:46.139Z,97663.41
2019-05-19T05:43:13.342Z,97653.42
2019-05-19T05:45:40.084Z,97646.28
2019-05-19T05:48:06.909Z,97641.88
2019-05-19T05:50:34.387Z,97646.74
2019-05-19T05:53:01.735Z,97652.98
2019-05-19T05:55:28.899Z,97651.05
2019-05-19T05:57:55.775Z,97647.55
2019-05-19T06:00:22.939Z,97645.61
2019-05-19T06:02:50.155Z,97642.42
2019-05-19T06:05:16.979Z,97643.90
2019-05-19T06:07:43.738Z,97642.52
2019-05-19T06:10:11.147Z,97636.94
2019-05-19T06:12:38.422Z,97634.80
2019-05-19T06:15:05.839Z,97636.39
2019-05-19T06:17:32.621Z,97636.37
2019-05-19T06:19:59.418Z,97640.66
2019-05-19T06:22:28.125Z,97638.27
2019-05-19T06:24:58.859Z,97638.36
2019-05-19T06:27:24.250Z,97636.30
2019-05-19T06:29:51.460Z,97639.61
2019-05-19T06:32:35.451Z,97644.47
2019-05-19T06:35:03.479Z,97644.61
2019-05-19T06:37:30.455Z,97646.41
2019-05-19T06:39:57.542Z,97644.83
2019-05-19T06:42:24.760Z,97643.47
2019-05-19T06:44:51.951Z,97647.11
2019-05-19T06:47:18.865Z,97648.45
2019-05-19T06:49:45.815Z,97650.97
2019-05-19T06:52:13.132Z,97644.17
2019-05-19T06:54:39.934Z,97649.33
2019-05-19T06:57:06.722Z,97650.66
2019-05-19T06:59:34.193Z,97648.41
2019-05-19T07:02:00.952Z,97648.41
2019-05-19T07:04:30.027Z,97649.73
2019-05-19T07:06:56.905Z,97655.51
2019-05-19T07:09:23.738Z,97660.08
2019-05-19T07:11:50.873Z,97655.94
2019-05-19T07:14:17.714Z,97656.55
2019-05-19T07:16:44.642Z,97654.21
2019-05-19T07:19:14.873Z,97647.83
2019-05-19T07:21:41.693Z,97643.30
2019-05-19T07:24:08.651Z,97640.67
2019-05-19T07:26:35.552Z,97648.58
2019-05-19T07:29:02.539Z,97645.73
2019-05-19T07:31:32.056Z,97641.05
2019-05-19T07:33:58.885Z,97639.03
2019-05-19T07:36:25.739Z,97633.05
2019-05-19T07:38:52.657Z,97644.00
2019-05-19T07:41:19.531Z,97638.83
2019-05-19T07:43:46.543Z,97636.70
2019-05-19T07:46:13.628Z,97641.38
2019-05-19T07:48:40.865Z,97635.86
2019-05-19T07:51:07.933Z,97641.38
2019-05-19T07:53:42.550Z,97648.52
2019-05-19T07:56:04.317Z,97643.98
2019-05-19T07:58:31.218Z,97646.14
2019-05-19T08:00:58.047Z,97635.17
2019-05-19T08:03:24.985Z,97638.41
2019-05-19T08:05:56.970Z,97639.97
2019-05-19T08:08:23.297Z,97639.54
2019-05-19T08:10:50.135Z,97642.33
2019-05-19T08:13:16.962Z,97642.11
2019-05-19T08:15:43.789Z,97639.46
2019-05-19T08:18:12.509Z,97642.33
2019-05-19T08:20:39.360Z,97638.14
2019-05-19T08:23:06.269Z,97642.08
2019-05-19T08:25:33.945Z,97642.27
2019-05-19T08:28:08.655Z,97641.59
2019-05-19T08:30:29.793Z,97644.23
2019-05-19T08:32:56.666Z,97645.80
2019-05-19T08:35:23.534Z,97644.80
2019-05-19T08:37:50.599Z,97644.80
2019-05-19T08:40:17.547Z,97648.65
2019-05-19T08:42:44.478Z,97648.48
2019-05-19T08:45:11.742Z,97648.44
2019-05-19T08:47:38.515Z,97643.48
2019-05-19T08:50:06.742Z,97648.53
2019-05-19T08:52:33.583Z,97644.30
2019-05-19T08:55:00.446Z,97645.97
2019-05-19T08:57:27.249Z,97646.73
2019-05-19T08:59:56.221Z,97641.52
2019-05-19T09:02:23.144Z,97641.17
2019-05-19T09:04:49.932Z,97646.34
2019-05-19T09:07:17.214Z,97647.02
2019-05-19T09:09:44.129Z,97647.45
2019-05-19T09:12:11.288Z,97646.37
2019-05-19T09:14:38.091Z,97647.64
2019-05-19T09:17:05.128Z,97641.63
2019-05-19T09:19:32.113Z,97641.31
2019-05-19T09:22:01.720Z,97646.37
2019-05-19T09:24:30.845Z,97641.91
2019-05-19T09:26:57.519Z,97634.55
2019-05-19T09:29:24.332Z,97636.14
2019-05-19T09:31:51.315Z,97632.05
2019-05-19T09:34:18.401Z,97630.15
2019-05-19T09:36:45.585Z,97629.05
2019-05-19T09:39:12.380Z,97626.25
2019-05-19T09:41:39.219Z,97620.23
2019-05-19T09:44:06.325Z,97623.69
2019-05-19T09:46:33.154Z,97618.33
2019-05-19T09:49:18.859Z,97626.60
2019-05-19T09:51:47.754Z,97625.71
2019-05-19T09:54:14.570Z,97622.46
2019-05-19T09:56:41.373Z,97617.61
2019-05-19T09:59:08.268Z,97623.30
2019-05-19T10:01:35.100Z,97618.95
2019-05-19T10:04:01.854Z,97616.45
2019-05-19T10:06:29.643Z,97613.32
2019-05-19T10:09:01.879Z,97609.97
2019-05-19T10:11:59.345Z,97609.12
2019-05-19T10:14:28.808Z,97610.22
2019-05-19T10:16:55.808Z,97612.16
2019-05-19T10:19:24.286Z,97618.24
2019-05-19T10:21:51.282Z,97608.58
2019-05-19T10:24:18.271Z,97613.02
2019-05-19T10:26:45.410Z,97608.39
2019-05-19T10:29:13.202Z,97613.99
2019-05-19T10:31:40.188Z,97606.23
2019-05-19T10:34:07.061Z,97611.88
2019-05-19T10:36:34.346Z,97608.60
2019-05-19T10:39:01.154Z,97613.30
2019-05-19T10:41:28.187Z,97611.96
2019-05-19T10:43:57.021Z,97614.86
2019-05-19T10:46:24.612Z,97612.16
2019-05-19T10:48:51.955Z,97616.13
2019-05-19T10:51:18.975Z,97619.03
2019-05-19T10:53:45.803Z,97615.06
2019-05-19T10:56:12.885Z,97613.73
2019-05-19T10:58:41.005Z,97620.53
2019-05-19T11:01:08.432Z,97618.22
2019-05-19T11:03:35.324Z,97616.61
2019-05-19T11:06:02.344Z,97614.64
2019-05-19T11:08:29.475Z,97613.26
2019-05-19T11:10:59.218Z,97613.63
2019-05-19T11:13:26.483Z,97611.05
2019-05-19T11:15:53.262Z,97614.77
2019-05-19T11:18:20.467Z,97617.86
2019-05-19T11:20:47.568Z,97612.59
2019-05-19T11:23:14.411Z,97605.70
2019-05-19T11:25:51.110Z,97608.78
2019-05-19T11:28:10.067Z,97606.80
2019-05-19T11:30:38.126Z,97601.38
2019-05-19T11:33:07.307Z,97599.69
2019-05-19T11:35:34.242Z,97603.46
2019-05-19T11:38:01.564Z,97600.77
2019-05-19T11:40:28.311Z,97604.89
2019-05-19T11:42:55.249Z,97601.38
2019-05-19T11:45:22.231Z,97593.43
2019-05-19T11:47:49.088Z,97597.95
2019-05-19T11:50:17.501Z,97592.83
2019-05-19T11:52:44.332Z,97597.95
2019-05-19T11:55:14.311Z,97594.22
2019-05-19T11:57:41.128Z,97590.44
2019-05-19T12:00:11.891Z,97602.17
2019-05-19T12:02:39.194Z,97594.81
2019-05-19T12:05:08.160Z,97609.27
2019-05-19T12:07:35.001Z,97595.16
2019-05-19T12:10:03.974Z,97600.52
2019-05-19T12:12:30.926Z,97609.02
2019-05-19T12:14:57.987Z,97603.04
2019-05-19T12:17:24.838Z,97604.82
2019-05-19T12:19:51.775Z,97600.52
2019-05-19T12:22:18.799Z,97598.30
2019-05-19T12:24:45.717Z,97588.69
2019-05-19T12:27:12.507Z,97593.23
2019-05-19T12:29:39.282Z,97588.11
2019-05-19T12:32:06.545Z,97589.24
2019-05-19T12:34:34.023Z,97588.88
2019-05-19T12:37:00.900Z,97586.92
2019-05-19T12:39:28.337Z,97594.20
2019-05-19T12:41:55.516Z,97580.27
2019-05-19T12:44:22.287Z,97583.41
2019-05-19T12:46:49.780Z,97576.87
2019-05-19T12:49:16.593Z,97576.06
2019-05-19T12:51:43.385Z,97572.13
2019-05-19T12:54:10.209Z,97576.85
2019-05-19T12:56:40.127Z,97569.45
2019-05-19T12:59:05.953Z,97563.36
2019-05-19T13:01:32.927Z,97558.20
2019-05-19T13:04:00.242Z,97570.13
2019-05-19T13:06:27.219Z,97559.80
2019-05-19T13:08:54.291Z,97557.65
2019-05-19T13:11:21.175Z,97557.34
2019-05-19T13:13:47.943Z,97543.72
2019-05-19T13:16:14.842Z,97539.37
2019-05-19T13:18:41.589Z,97543.52
2019-05-19T13:21:08.445Z,97539.59
2019-05-19T13:23:35.188Z,97544.48
2019-05-19T13:26:02.280Z,97540.81
2019-05-19T13:28:29.020Z,97535.00
2019-05-19T13:30:55.994Z,97528.45
2019-05-19T13:33:22.825Z,97531.78
2019-05-19T13:35:49.706Z,97534.45
2019-05-19T13:38:16.471Z,97542.49
2019-05-19T13:40:43.386Z,97538.33
2019-05-19T13:43:10.145Z,97536.48
2019-05-19T13:45:36.922Z,97537.67
2019-05-19T13:48:03.820Z,97540.24
2019-05-19T13:50:30.809Z,97534.91
2019-05-19T13:52:57.638Z,97534.55
2019-05-19T13:55:24.484Z,97531.37
2019-05-19T13:57:51.487Z,97526.11
2019-05-19T14:00:18.549Z,97524.48
2019-05-19T14:02:45.355Z,97518.56
2019-05-19T14:05:12.401Z,97515.50
2019-05-19T14:07:39.282Z,97519.28
2019-05-19T14:10:07.480Z,97517.83
2019-05-19T14:12:34.254Z,97515.33
2019-05-19T14:15:04.140Z,97519.29
2019-05-19T14:17:32.906Z,97520.59
2019-05-19T14:19:59.911Z,97519.77
2019-05-19T14:22:28.110Z,97522.25
2019-05-19T14:24:55.299Z,97524.30
2019-05-19T14:27:30.427Z,97527.69
2019-05-19T14:29:51.312Z,97516.45
2019-05-19T14:32:20.131Z,97514.91
2019-05-19T14:34:47.754Z,97504.73
2019-05-19T14:37:14.631Z,97504.39
2019-05-19T14:39:41.639Z,97496.42
2019-05-19T14:42:11.164Z,97506.22
2019-05-19T14:44:38.313Z,97498.92
2019-05-19T14:47:05.240Z,97494.14
2019-05-19T14:49:32.426Z,97496.17
2019-05-19T14:51:59.335Z,97488.34
2019-05-19T14:54:26.102Z,97484.47
2019-05-19T14:56:52.946Z,97485.30
2019-05-19T14:59:19.895Z,97482.18
2019-05-19T15:01:46.945Z,97481.99
2019-05-19T15:04:13.812Z,97482.48
2019-05-19T15:06:40.715Z,97485.76
2019-05-19T15:09:07.871Z,97483.23
2019-05-19T15:11:35.174Z,97476.77
2019-05-19T15:14:02.331Z,97475.24
2019-05-19T15:16:29.720Z,97480.80
2019-05-19T15:18:56.835Z,97485.94
2019-05-19T15:21:23.789Z,97479.17
2019-05-19T15:23:50.679Z,97491.98
2019-05-19T15:26:17.703Z,97480.97
2019-05-19T15:28:46.088Z,97478.22
2019-05-19T15:31:13.837Z,97483.59
2019-05-19T15:33:40.787Z,97485.41
2019-05-19T15:36:07.918Z,97496.64
2019-05-19T15:38:36.916Z,97492.12
2019-05-19T15:41:04.382Z,97492.89
2019-05-19T15:43:31.344Z,97486.80
2019-05-19T15:46:00.915Z,97489.36
2019-05-19T15:48:27.648Z,97484.45
2019-05-19T15:50:54.799Z,97478.76
2019-05-19T15:53:24.138Z,97478.17
2019-05-19T15:55:51.201Z,97479.96
2019-05-19T15:58:18.499Z,97483.08
2019-05-19T16:00:45.251Z,97471.48
2019-05-19T16:03:12.254Z,97471.88
2019-05-19T16:05:39.003Z,97464.99
2019-05-19T16:08:05.922Z,97464.41
2019-05-19T16:10:32.719Z,97466.97
2019-05-19T16:12:59.749Z,97469.55
2019-05-19T16:15:26.477Z,97465.83
2019-05-19T16:17:54.798Z,97466.02
2019-05-19T16:20:21.670Z,97469.76
2019-05-19T16:22:48.470Z,97464.64
2019-05-19T16:25:15.514Z,97467.61
2019-05-19T16:27:42.495Z,97469.97
2019-05-19T16:30:14.253Z,97468.20
2019-05-19T16:32:41.625Z,97470.58
2019-05-19T16:35:10.053Z,97458.79
2019-05-19T16:37:37.511Z,97461.16
2019-05-19T16:40:05.592Z,97460.56
2019-05-19T16:42:32.514Z,97461.91
2019-05-19T16:44:59.315Z,97470.95
2019-05-19T16:47:26.202Z,97462.11
2019-05-19T16:49:54.515Z,97456.60
2019-05-19T16:52:21.571Z,97456.59
2019-05-19T16:55:07.032Z,97459.95
2019-05-19T16:57:34.191Z,97459.75
2019-05-19T17:00:01.374Z,97464.07
2019-05-19T17:02:28.520Z,97455.22
2019-05-19T17:04:55.665Z,97453.05
2019-05-19T17:07:22.449Z,97456.39
2019-05-19T17:09:49.310Z,97452.06
2019-05-19T17:12:16.367Z,97461.31
2019-05-19T17:14:43.200Z,97460.91
2019-05-19T17:17:10.405Z,97460.53
2019-05-19T17:19:37.187Z,97464.64
2019-05-19T17:22:04.151Z,97462.09
2019-05-19T17:24:31.091Z,97460.73
2019-05-19T17:26:57.975Z,97458.55
2019-05-19T17:29:24.975Z,97468.77
2019-05-19T17:32:05.313Z,97464.25
2019-05-19T17:34:22.204Z,97470.34
2019-05-19T17:36:49.010Z,97469.76
2019-05-19T17:39:16.244Z,97469.19
2019-05-19T17:41:43.346Z,97469.56
2019-05-19T17:44:10.183Z,97482.92
2019-05-19T17:46:37.206Z,97485.67
2019-05-19T17:49:04.113Z,97479.77
2019-05-19T17:51:31.187Z,97477.22
2019-05-19T17:53:58.999Z,97482.33
2019-05-19T17:56:27.634Z,97487.25
2019-05-19T17:58:55.406Z,97494.10
2019-05-19T18:01:22.262Z,97490.77
2019-05-19T18:03:50.419Z,97487.80
2019-05-19T18:06:19.251Z,97487.02
2019-05-19T18:08:56.970Z,97491.14
2019-05-19T18:11:24.097Z,97491.14
2019-05-19T18:13:51.238Z,97492.72
2019-05-19T18:16:18.257Z,97495.48
2019-05-19T18:18:45.441Z,97490.77
2019-05-19T18:21:12.240Z,97492.91
2019-05-19T18:23:39.046Z,97493.87
2019-05-19T18:26:07.394Z,97489.56
2019-05-19T18:28:34.341Z,97482.09
2019-05-19T18:31:01.246Z,97486.59
2019-05-19T18:33:28.014Z,97486.78
2019-05-19T18:35:54.910Z,97493.66
2019-05-19T18:38:21.713Z,97495.59
2019-05-19T18:40:48.683Z,97490.11
2019-05-19T18:43:15.849Z,97496.96
2019-05-19T18:45:42.768Z,97497.94
2019-05-19T18:48:09.893Z,97498.53
2019-05-19T18:50:37.220Z,97502.45
2019-05-19T18:53:04.730Z,97502.98
2019-05-19T18:55:31.879Z,97499.23
2019-05-19T18:57:58.683Z,97499.03
2019-05-19T19:00:35.272Z,97497.62
2019-05-19T19:03:03.858Z,97500.37
2019-05-19T19:05:31.345Z,97498.60
2019-05-19T19:07:58.339Z,97502.52
2019-05-19T19:10:25.573Z,97499.34
2019-05-19T19:12:52.441Z,97501.69
2019-05-19T19:15:24.550Z,97494.42
2019-05-19T19:17:51.800Z,97498.14
2019-05-19T19:20:18.987Z,97498.11
2019-05-19T19:22:46.043Z,97505.50
2019-05-19T19:25:13.323Z,97504.66
2019-05-19T19:27:40.271Z,97510.15
2019-05-19T19:30:08.179Z,97517.57
2019-05-19T19:32:35.088Z,97508.56
2019-05-19T19:35:06.258Z,97510.50
2019-05-19T19:37:33.302Z,97510.88
2019-05-19T19:40:04.711Z,97518.73
2019-05-19T19:42:33.986Z,97520.27
2019-05-19T19:45:02.335Z,97518.30
2019-05-19T19:47:29.870Z,97521.99
2019-05-19T19:49:57.159Z,97527.48
2019-05-19T19:52:24.064Z,97525.50
2019-05-19T19:54:51.659Z,97518.59
2019-05-19T19:57:18.536Z,97517.79
2019-05-19T19:59:47.368Z,97519.89
2019-05-19T20:02:14.340Z,97514.39
2019-05-19T20:04:41.347Z,97512.20
2019-05-19T20:07:08.451Z,97510.80
2019-05-19T20:09:35.725Z,97514.91
2019-05-19T20:12:02.929Z,97520.59
2019-05-19T20:14:30.535Z,97512.98
2019-05-19T20:16:57.491Z,97514.15
2019-05-19T20:19:24.431Z,97510.55
2019-05-19T20:21:51.497Z,97509.37
2019-05-19T20:24:18.387Z,97514.45
2019-05-19T20:26:48.493Z,97514.25
2019-05-19T20:29:15.681Z,97514.25
2019-05-19T20:31:42.667Z,97517.39
2019-05-19T20:34:09.950Z,97516.59
2019-05-19T20:36:37.013Z,97522.26
2019-05-19T20:39:05.231Z,97524.00
2019-05-19T20:41:32.079Z,97520.48
2019-05-19T20:43:58.883Z,97524.95
2019-05-19T20:46:26.189Z,97524.39
2019-05-19T20:48:53.109Z,97519.06
2019-05-19T20:51:20.660Z,97517.13
2019-05-19T20:53:49.050Z,97511.80
2019-05-19T20:56:15.966Z,97507.67
2019-05-19T20:58:42.832Z,97512.54
2019-05-19T21:01:09.858Z,97516.81
2019-05-19T21:03:36.681Z,97524.87
2019-05-19T21:06:04.035Z,97525.09
2019-05-19T21:08:34.149Z,97520.36
2019-05-19T21:11:03.121Z,97522.08
2019-05-19T21:13:29.957Z,97531.82
2019-05-19T21:15:57.346Z,97526.14
2019-05-19T21:18:24.594Z,97528.27
2019-05-19T21:20:51.602Z,97532.97
2019-05-19T21:23:18.685Z,97528.45
2019-05-19T21:25:46.648Z,97533.53
2019-05-19T21:28:13.927Z,97533.17
2019-05-19T21:30:41.197Z,97534.29
2019-05-19T21:33:08.154Z,97537.98
2019-05-19T21:35:35.905Z,97525.66
2019-05-19T21:38:03.242Z,97527.02
2019-05-19T21:40:30.206Z,97521.55
2019-05-19T21:42:56.960Z,97516.25
2019-05-19T21:45:23.757Z,97524.08
2019-05-19T21:47:50.698Z,97528.94
2019-05-19T21:50:17.858Z,97533.59
2019-05-19T21:52:44.773Z,97534.74
2019-05-19T21:55:11.892Z,97537.48
2019-05-19T21:57:38.649Z,97535.49
2019-05-19T22:00:10.645Z,97544.23
2019-05-19T22:02:38.940Z,97550.66
2019-05-19T22:05:06.513Z,97549.48
2019-05-19T22:07:52.620Z,97566.04
2019-05-19T22:10:19.441Z,97563.45
2019-05-19T22:12:46.224Z,97566.39
2019-05-19T22:15:14.011Z,97569.14
2019-05-19T22:17:42.926Z,97577.98
2019-05-19T22:20:09.928Z,97583.25
2019-05-19T22:22:36.793Z,97586.86
2019-05-19T22:25:06.200Z,97593.49
2019-05-19T22:27:33.181Z,97589.77
2019-05-19T22:30:00.119Z,97597.78
2019-05-19T22:32:27.067Z,97594.09
2019-05-19T22:34:54.321Z,97600.94
2019-05-19T22:37:21.479Z,97588.84
2019-05-19T22:39:48.299Z,97585.91
2019-05-19T22:42:15.502Z,97584.65
2019-05-19T22:44:42.420Z,97589.28
2019-05-19T22:47:09.355Z,97596.94
2019-05-19T22:49:36.710Z,97602.14
2019-05-19T22:52:03.588Z,97602.88
2019-05-19T22:54:30.355Z,97613.41
2019-05-19T22:56:57.689Z,97618.37
2019-05-19T22:59:24.483Z,97618.75
2019-05-19T23:01:52.262Z,97618.16
2019-05-19T23:04:22.347Z,97618.13
2019-05-19T23:06:49.781Z,97626.89
2019-05-19T23:09:16.673Z,97633.50
2019-05-19T23:11:43.579Z,97628.32
2019-05-19T23:14:10.841Z,97628.34
2019-05-19T23:16:37.775Z,97621.95
2019-05-19T23:19:04.621Z,97626.98
2019-05-19T23:21:34.409Z,97628.70
2019-05-19T23:24:00.430Z,97618.23
2019-05-19T23:26:27.209Z,97625.37
2019-05-19T23:28:54.036Z,97620.75
2019-05-19T23:31:21.014Z,97618.19
2019-05-19T23:33:47.830Z,97614.86
2019-05-19T23:36:14.838Z,97610.41
2019-05-19T23:38:47.165Z,97613.80
2019-05-19T23:41:14.420Z,97607.47
2019-05-19T23:43:41.312Z,97610.16
2019-05-19T23:46:08.211Z,97603.60
2019-05-19T23:48:35.267Z,97598.78
2019-05-19T23:51:02.280Z,97596.22
2019-05-19T23:53:29.146Z,97592.33
2019-05-19T23:55:56.132Z,97589.67
2019-05-19T23:58:23.176Z,97586.98
